Seago Piraeus — OXVD2 — position and weather

sailwx.info

Track history (hours):
 
Tides and Currents Weather Stations Pressure Air Temp Water Temp Dewpoint Dewpoint Depression Visibility Wind Speed Wind Dir Waves Ship Positions

Seago Piraeus

Last reported at 2016-May-24 03:33 UTC. Time now 2016-May-24 06:08 UTC.
Position N 49°08' W 004°39'.

Length 294 m; draft 13.5 m.

Type: Ship (hazmat cat A). MMSI: 219117000.

Date/timePositionNaut miles runAvg speedWind from/ knotsBaromVisibWave heightAir tempDewpointWater temp
2016-May-24 03:33N 49°08' W 004°39'1818.2
2016-May-24 02:33N 48°59' W 005°03'1817.5
2016-May-24 01:33N 48°50' W 005°26'60216.5
2016-May-22 13:04N 39°18' W 009°48'916.7
2016-May-22 12:33N 39°10' W 009°50'1716.6
2016-May-22 11:33N 38°53' W 009°50'1716.7
2016-May-22 10:33N 38°37' W 009°49'1616.1
2016-May-22 09:33N 38°21' W 009°43'1616.1
2016-May-22 08:33N 38°05' W 009°39'1616.2
2016-May-22 07:33N 37°49' W 009°34'17014.9
2016-May-21 20:08N 36°05' W 006°45'2616.7
2016-May-21 18:33N 35°58' W 006°14'3615.3
2016-May-21 16:13N 35°59' W 005°30'1015.4
2016-May-21 15:33N 36°02' W 005°18'20416.7
2016-May-21 03:21N 37°03' W 001°16'1717.4
2016-May-21 02:24N 37°15' W 001°00'1517.4
2016-May-21 01:33N 37°24' W 000°47'1717.3
2016-May-21 00:33N 37°37' W 000°31'1717.4
2016-May-20 23:33N 37°51' W 000°20'1817.5
2016-May-20 22:33N 38°06' W 000°08'1917.6
2016-May-20 21:27N 38°22' E 000°05'6014.3
2016-May-20 17:17N 39°21' W 000°11'811.3
2016-May-20 16:33N 39°26' W 000°19'0 0.2
2016-May-20 15:06N 39°26' W 000°19'0 0.0
2016-May-20 14:27N 39°26' W 000°19'0 0.0
2016-May-20 13:24N 39°26' W 000°19'0 0.0
2016-May-20 11:18N 39°26' W 000°19'0 0.0
2016-May-20 08:33N 39°26' W 000°19'0 0.0
2016-May-20 07:21N 39°26' W 000°19'0 0.0
2016-May-20 06:12N 39°26' W 000°19'0 0.0
2016-May-20 05:33N 39°26' W 000°19'0 0.0
2016-May-20 04:09N 39°26' W 000°19'0 0.0
2016-May-20 02:30N 39°26' W 000°19'0 0.0
2016-May-20 01:33N 39°26' W 000°19'0 0.0
2016-May-20 00:33N 39°26' W 000°19'0 0.0
2016-May-19 23:33N 39°26' W 000°19'0 0.1
2016-May-19 22:33N 39°26' W 000°19'4 4.0
2016-May-19 21:33N 39°25' W 000°14'5213.1
2016-May-19 17:33N 39°17' E 000°53'1414.2
2016-May-19 16:33N 39°15' E 001°11'1414.0
2016-May-19 15:32N 39°13' E 001°29'6613.2
2016-May-19 10:33N 38°58' E 002°51'1515.0
2016-May-19 09:33N 38°54' E 003°10'1715.3
2016-May-19 08:28N 38°50' E 003°31'1617.5
2016-May-19 07:33N 38°47' E 003°51'23418.0
2016-May-18 18:33N 37°52' E 008°41'1717.4
2016-May-18 17:33N 37°48' E 009°02'1818.1
2016-May-18 16:33N 37°44' E 009°25'1917.8
2016-May-18 15:29N 37°41' E 009°48'1717.4
2016-May-18 14:31N 37°39' E 010°09'1717.1
2016-May-18 13:34N 37°37' E 010°30'1817.5
2016-May-18 12:33N 37°32' E 010°51'1817.6
2016-May-18 11:31N 37°27' E 011°13'1718.1
2016-May-18 10:34N 37°19' E 011°33'1818.0
2016-May-18 09:33N 37°11' E 011°53'1817.7
2016-May-18 08:33N 37°04' E 012°14'2517.6
2016-May-18 07:09N 36°57' E 012°43'1017.3
2016-May-18 06:34N 36°55' E 012°56'1717.3
2016-May-18 05:34N 36°50' E 013°16'1817.7
2016-May-18 04:34N 36°45' E 013°38'1817.7
2016-May-18 03:34N 36°39' E 013°59'1817.8
2016-May-18 02:34N 36°34' E 014°20'1817.6
2016-May-18 01:33N 36°29' E 014°41'2017.3
2016-May-18 00:26N 36°28' E 015°05'1617.9
2016-May-17 23:33N 36°28' E 015°25'1817.6
2016-May-17 22:33N 36°28' E 015°47'7817.4
2016-May-17 18:06N 36°26' E 017°23'1017.4
2016-May-17 17:29N 36°26' E 017°36'1617.4
2016-May-17 16:34N 36°26' E 017°56'26317.3
2016-May-17 01:21N 36°38' E 023°23'1617.9
2016-May-17 00:28N 36°52' E 023°33'1618.2
2016-May-16 23:34N 37°08' E 023°36'1818.1
2016-May-16 22:33N 37°26' E 023°40'1817.9
2016-May-16 21:34N 37°44' E 023°39'1413.6
2016-May-16 20:34N 37°57' E 023°36'0 0.0
2016-May-16 19:33N 37°57' E 023°36'0 0.0
2016-May-16 18:33N 37°57' E 023°36'0 0.0
2016-May-16 17:33N 37°57' E 023°36'0 0.0
2016-May-16 16:33N 37°57' E 023°36'0 0.0
2016-May-16 15:33N 37°57' E 023°36'0 0.0
2016-May-16 14:33N 37°57' E 023°36'0 0.0
2016-May-16 13:33N 37°57' E 023°36'0 0.0
2016-May-16 12:33N 37°57' E 023°36'0 0.0
2016-May-16 11:33N 37°57' E 023°36'0 0.0
2016-May-16 10:33N 37°57' E 023°36'0 0.0
2016-May-16 09:33N 37°57' E 023°36'0 0.0
2016-May-16 08:33N 37°57' E 023°36'0 0.0
2016-May-16 07:33N 37°57' E 023°36'0 0.2
2016-May-16 06:33N 37°57' E 023°36'3 3.1
2016-May-16 05:33N 37°54' E 023°37'1 1.0
2016-May-16 04:33N 37°54' E 023°37'2 2.5
2016-May-16 03:33N 37°51' E 023°36'2 2.3
2016-May-16 02:33N 37°49' E 023°34'0 0.4
2016-May-16 01:33N 37°50' E 023°34'0 0.3
2016-May-16 00:33N 37°50' E 023°34'1 1.2
2016-May-15 23:33N 37°49' E 023°35'0 0.5
2016-May-15 22:33N 37°50' E 023°35'1 0.5
2016-May-15 21:33N 37°50' E 023°35'1 0.6
2016-May-15 20:33N 37°51' E 023°35'0 0.4
2016-May-15 19:33N 37°50' E 023°34'1 0.9
2016-May-15 18:33N 37°50' E 023°34'0 0.4
2016-May-15 17:33N 37°50' E 023°33'0 0.4
2016-May-15 16:33N 37°50' E 023°33'0 0.3
2016-May-15 15:33N 37°50' E 023°33'0 0.3
2016-May-15 14:33N 37°50' E 023°33'0 0.3
2016-May-15 13:33N 37°49' E 023°34'0 0.1
2016-May-15 12:33N 37°49' E 023°34'4 3.9
2016-May-15 11:33N 37°52' E 023°38'1211.6
2016-May-15 10:33N 37°42' E 023°45'1312.6
2016-May-15 09:33N 37°36' E 023°59'1511.4
2016-May-15 08:15N 37°43' E 024°15'913.2
2016-May-15 07:33N 37°49' E 024°24'  
Track history (hours):
 
Tides and Currents Weather Stations Pressure Air Temp Water Temp Dewpoint Dewpoint Depression Visibility Wind Speed Wind Dir Waves Ship Positions

Seago Piraeus

Last reported at 2016-May-24 03:33 UTC. Time now 2016-May-24 06:08 UTC.
Position N 49°08' W 004°39'.

Length 294 m; draft 13.5 m.

Type: Ship (hazmat cat A). MMSI: 219117000.

Date/timePositionNaut miles runAvg speedWind from/ knotsBaromVisibWave heightAir tempDewpointWater temp
2016-May-24 03:33N 49°08' W 004°39'1818.2
2016-May-24 02:33N 48°59' W 005°03'1817.5
2016-May-24 01:33N 48°50' W 005°26'60216.5
2016-May-22 13:04N 39°18' W 009°48'916.7
2016-May-22 12:33N 39°10' W 009°50'1716.6
2016-May-22 11:33N 38°53' W 009°50'1716.7
2016-May-22 10:33N 38°37' W 009°49'1616.1
2016-May-22 09:33N 38°21' W 009°43'1616.1
2016-May-22 08:33N 38°05' W 009°39'1616.2
2016-May-22 07:33N 37°49' W 009°34'17014.9
2016-May-21 20:08N 36°05' W 006°45'2616.7
2016-May-21 18:33N 35°58' W 006°14'3615.3
2016-May-21 16:13N 35°59' W 005°30'1015.4
2016-May-21 15:33N 36°02' W 005°18'20416.7
2016-May-21 03:21N 37°03' W 001°16'1717.4
2016-May-21 02:24N 37°15' W 001°00'1517.4
2016-May-21 01:33N 37°24' W 000°47'1717.3
2016-May-21 00:33N 37°37' W 000°31'1717.4
2016-May-20 23:33N 37°51' W 000°20'1817.5
2016-May-20 22:33N 38°06' W 000°08'1917.6
2016-May-20 21:27N 38°22' E 000°05'6014.3
2016-May-20 17:17N 39°21' W 000°11'811.3
2016-May-20 16:33N 39°26' W 000°19'0 0.2
2016-May-20 15:06N 39°26' W 000°19'0 0.0
2016-May-20 14:27N 39°26' W 000°19'0 0.0
2016-May-20 13:24N 39°26' W 000°19'0 0.0
2016-May-20 11:18N 39°26' W 000°19'0 0.0
2016-May-20 08:33N 39°26' W 000°19'0 0.0
2016-May-20 07:21N 39°26' W 000°19'0 0.0
2016-May-20 06:12N 39°26' W 000°19'0 0.0
2016-May-20 05:33N 39°26' W 000°19'0 0.0
2016-May-20 04:09N 39°26' W 000°19'0 0.0
2016-May-20 02:30N 39°26' W 000°19'0 0.0
2016-May-20 01:33N 39°26' W 000°19'0 0.0
2016-May-20 00:33N 39°26' W 000°19'0 0.0
2016-May-19 23:33N 39°26' W 000°19'0 0.1
2016-May-19 22:33N 39°26' W 000°19'4 4.0
2016-May-19 21:33N 39°25' W 000°14'5213.1
2016-May-19 17:33N 39°17' E 000°53'1414.2
2016-May-19 16:33N 39°15' E 001°11'1414.0
2016-May-19 15:32N 39°13' E 001°29'6613.2
2016-May-19 10:33N 38°58' E 002°51'1515.0
2016-May-19 09:33N 38°54' E 003°10'1715.3
2016-May-19 08:28N 38°50' E 003°31'1617.5
2016-May-19 07:33N 38°47' E 003°51'23418.0
2016-May-18 18:33N 37°52' E 008°41'1717.4
2016-May-18 17:33N 37°48' E 009°02'1818.1
2016-May-18 16:33N 37°44' E 009°25'1917.8
2016-May-18 15:29N 37°41' E 009°48'1717.4
2016-May-18 14:31N 37°39' E 010°09'1717.1
2016-May-18 13:34N 37°37' E 010°30'1817.5
2016-May-18 12:33N 37°32' E 010°51'1817.6
2016-May-18 11:31N 37°27' E 011°13'1718.1
2016-May-18 10:34N 37°19' E 011°33'1818.0
2016-May-18 09:33N 37°11' E 011°53'1817.7
2016-May-18 08:33N 37°04' E 012°14'2517.6
2016-May-18 07:09N 36°57' E 012°43'1017.3
2016-May-18 06:34N 36°55' E 012°56'1717.3
2016-May-18 05:34N 36°50' E 013°16'1817.7
2016-May-18 04:34N 36°45' E 013°38'1817.7
2016-May-18 03:34N 36°39' E 013°59'1817.8
2016-May-18 02:34N 36°34' E 014°20'1817.6
2016-May-18 01:33N 36°29' E 014°41'2017.3
2016-May-18 00:26N 36°28' E 015°05'1617.9
2016-May-17 23:33N 36°28' E 015°25'1817.6
2016-May-17 22:33N 36°28' E 015°47'7817.4
2016-May-17 18:06N 36°26' E 017°23'1017.4
2016-May-17 17:29N 36°26' E 017°36'1617.4
2016-May-17 16:34N 36°26' E 017°56'26317.3
2016-May-17 01:21N 36°38' E 023°23'1617.9
2016-May-17 00:28N 36°52' E 023°33'1618.2
2016-May-16 23:34N 37°08' E 023°36'1818.1
2016-May-16 22:33N 37°26' E 023°40'1817.9
2016-May-16 21:34N 37°44' E 023°39'1413.6
2016-May-16 20:34N 37°57' E 023°36'0 0.0
2016-May-16 19:33N 37°57' E 023°36'0 0.0
2016-May-16 18:33N 37°57' E 023°36'0 0.0
2016-May-16 17:33N 37°57' E 023°36'0 0.0
2016-May-16 16:33N 37°57' E 023°36'0 0.0
2016-May-16 15:33N 37°57' E 023°36'0 0.0
2016-May-16 14:33N 37°57' E 023°36'0 0.0
2016-May-16 13:33N 37°57' E 023°36'0 0.0
2016-May-16 12:33N 37°57' E 023°36'0 0.0
2016-May-16 11:33N 37°57' E 023°36'0 0.0
2016-May-16 10:33N 37°57' E 023°36'0 0.0
2016-May-16 09:33N 37°57' E 023°36'0 0.0
2016-May-16 08:33N 37°57' E 023°36'0 0.0
2016-May-16 07:33N 37°57' E 023°36'0 0.2
2016-May-16 06:33N 37°57' E 023°36'3 3.1
2016-May-16 05:33N 37°54' E 023°37'1 1.0
2016-May-16 04:33N 37°54' E 023°37'2 2.5
2016-May-16 03:33N 37°51' E 023°36'2 2.3
2016-May-16 02:33N 37°49' E 023°34'0 0.4
2016-May-16 01:33N 37°50' E 023°34'0 0.3
2016-May-16 00:33N 37°50' E 023°34'1 1.2
2016-May-15 23:33N 37°49' E 023°35'0 0.5
2016-May-15 22:33N 37°50' E 023°35'1 0.5
2016-May-15 21:33N 37°50' E 023°35'1 0.6
2016-May-15 20:33N 37°51' E 023°35'0 0.4
2016-May-15 19:33N 37°50' E 023°34'1 0.9
2016-May-15 18:33N 37°50' E 023°34'0 0.4
2016-May-15 17:33N 37°50' E 023°33'0 0.4
2016-May-15 16:33N 37°50' E 023°33'0 0.3
2016-May-15 15:33N 37°50' E 023°33'0 0.3
2016-May-15 14:33N 37°50' E 023°33'0 0.3
2016-May-15 13:33N 37°49' E 023°34'0 0.1
2016-May-15 12:33N 37°49' E 023°34'4 3.9
2016-May-15 11:33N 37°52' E 023°38'1211.6
2016-May-15 10:33N 37°42' E 023°45'1312.6
2016-May-15 09:33N 37°36' E 023°59'1511.4
2016-May-15 08:15N 37°43' E 024°15'913.2
2016-May-15 07:33N 37°49' E 024°24'  

Dump ship's entire track history